createdAt,value
2019-04-25T00:00:41.997Z,45.15
2019-04-25T00:03:12.729Z,43.68
2019-04-25T00:05:43.594Z,44.02
2019-04-25T00:08:14.232Z,42.84
2019-04-25T00:10:45.428Z,45.02
2019-04-25T00:13:16.069Z,42.39
2019-04-25T00:15:47.094Z,43.47
2019-04-25T00:18:17.601Z,42.69
2019-04-25T00:20:49.632Z,44.45
2019-04-25T00:23:21.766Z,44.23
2019-04-25T00:26:01.235Z,41.99
2019-04-25T00:28:31.815Z,42.79
2019-04-25T00:31:02.482Z,43.39
2019-04-25T00:33:33.001Z,42.78
2019-04-25T00:36:03.835Z,41.51
2019-04-25T00:38:34.411Z,41.38
2019-04-25T00:41:05.054Z,41.06
2019-04-25T00:43:35.471Z,44.07
2019-04-25T00:46:05.921Z,42.86
2019-04-25T00:48:36.402Z,43.98
2019-04-25T00:51:06.853Z,46.32
2019-04-25T00:53:37.317Z,43.21
2019-04-25T00:56:07.784Z,42.76
2019-04-25T00:58:39.909Z,45.95
2019-04-25T01:01:12.163Z,43.57
2019-04-25T01:03:44.138Z,47.11
2019-04-25T01:06:15.056Z,46.73
2019-04-25T01:08:45.824Z,46.28
2019-04-25T01:11:16.381Z,45.76
2019-04-25T01:13:46.865Z,44.35
2019-04-25T01:16:17.337Z,46.26
2019-04-25T01:18:48.754Z,46.83
2019-04-25T01:21:19.201Z,45.60
2019-04-25T01:23:49.724Z,46.63
2019-04-25T01:26:20.230Z,45.30
2019-04-25T01:28:50.791Z,47.77
2019-04-25T01:31:23.351Z,44.47
2019-04-25T01:33:55.612Z,43.99
2019-04-25T01:36:33.435Z,45.68
2019-04-25T01:39:06.629Z,44.53
2019-04-25T01:41:38.695Z,44.91
2019-04-25T01:44:16.452Z,46.34
2019-04-25T01:46:48.177Z,47.37
2019-04-25T01:49:18.825Z,46.23
2019-04-25T01:51:50.312Z,46.65
2019-04-25T01:54:20.885Z,44.72
2019-04-25T01:56:51.323Z,47.00
2019-04-25T01:59:21.814Z,44.57
2019-04-25T02:01:52.960Z,44.72
2019-04-25T02:04:24.497Z,45.32
2019-04-25T02:06:55.680Z,46.57
2019-04-25T02:09:26.517Z,44.92
2019-04-25T02:12:01.250Z,46.34
2019-04-25T02:14:33.552Z,44.72
2019-04-25T02:17:04.614Z,45.26
2019-04-25T02:19:35.749Z,45.27
2019-04-25T02:22:06.408Z,45.15
2019-04-25T02:24:36.876Z,44.92
2019-04-25T02:27:07.329Z,45.42
2019-04-25T02:29:37.834Z,44.23
2019-04-25T02:32:09.137Z,43.94
2019-04-25T02:34:39.791Z,42.75
2019-04-25T02:37:10.309Z,43.68
2019-04-25T02:39:40.778Z,42.69
2019-04-25T02:42:11.238Z,42.64
2019-04-25T02:44:44.527Z,44.01
2019-04-25T02:47:34.437Z,44.65
2019-04-25T02:50:15.073Z,43.95
2019-04-25T02:52:50.377Z,44.25
2019-04-25T02:55:30.963Z,44.43
2019-04-25T02:57:54.193Z,43.46
2019-04-25T03:00:45.446Z,43.97
2019-04-25T03:03:02.384Z,43.63
2019-04-25T03:05:35.318Z,44.23
2019-04-25T03:08:09.034Z,43.80
2019-04-25T03:10:37.822Z,43.16
2019-04-25T03:13:11.433Z,43.50
2019-04-25T03:15:40.673Z,44.01
2019-04-25T03:18:14.562Z,43.56
2019-04-25T03:20:47.848Z,43.35
2019-04-25T03:23:35.443Z,44.51
2019-04-25T03:26:07.473Z,43.44
2019-04-25T03:28:38.117Z,43.78
2019-04-25T03:31:15.228Z,44.66
2019-04-25T03:33:40.747Z,43.50
2019-04-25T03:36:11.147Z,43.74
2019-04-25T03:38:41.600Z,44.14
2019-04-25T03:41:14.356Z,44.21
2019-04-25T03:43:45.052Z,43.93
2019-04-25T03:46:15.547Z,44.12
2019-04-25T03:48:46.027Z,44.07
2019-04-25T03:51:16.603Z,44.31
2019-04-25T03:53:47.006Z,44.73
2019-04-25T03:56:19.046Z,44.38
2019-04-25T03:58:49.490Z,44.69
2019-04-25T04:01:20.015Z,44.48
2019-04-25T04:03:50.413Z,43.89
2019-04-25T04:06:21.033Z,44.26
2019-04-25T04:08:51.503Z,44.47
2019-04-25T04:11:23.697Z,44.79
2019-04-25T04:13:55.507Z,44.98
2019-04-25T04:16:27.602Z,44.28
2019-04-25T04:18:58.193Z,44.31
2019-04-25T04:21:39.061Z,44.17
2019-04-25T04:24:17.190Z,44.20
2019-04-25T04:26:49.254Z,44.26
2019-04-25T04:29:19.724Z,44.03
2019-04-25T04:31:50.225Z,44.27
2019-04-25T04:34:20.747Z,44.46
2019-04-25T04:36:51.235Z,43.97
2019-04-25T04:39:21.695Z,44.58
2019-04-25T04:41:53.538Z,43.68
2019-04-25T04:44:24.402Z,43.80
2019-04-25T04:46:55.096Z,43.45
2019-04-25T04:49:25.557Z,42.97
2019-04-25T04:51:56.206Z,43.17
2019-04-25T04:54:26.682Z,42.28
2019-04-25T04:56:57.208Z,41.83
2019-04-25T04:59:27.659Z,40.88
2019-04-25T05:02:14.601Z,40.01
2019-04-25T05:04:45.180Z,40.54
2019-04-25T05:07:33.880Z,39.27
2019-04-25T05:10:05.311Z,38.48
2019-04-25T05:12:35.794Z,38.43
2019-04-25T05:15:08.347Z,38.68
2019-04-25T05:17:38.824Z,39.14
2019-04-25T05:20:09.502Z,38.54
2019-04-25T05:22:40.181Z,38.40
2019-04-25T05:25:10.911Z,38.06
2019-04-25T05:27:59.090Z,37.63
2019-04-25T05:30:16.629Z,36.92
2019-04-25T05:32:47.668Z,37.24
2019-04-25T05:35:18.161Z,36.82
2019-04-25T05:37:48.650Z,36.92
2019-04-25T05:40:20.067Z,37.02
2019-04-25T05:42:52.180Z,36.91
2019-04-25T05:45:24.674Z,36.90
2019-04-25T05:47:55.331Z,36.99
2019-04-25T05:50:26.284Z,37.21
2019-04-25T05:52:57.142Z,36.88
2019-04-25T05:55:27.968Z,36.30
2019-04-25T05:57:58.449Z,36.86
2019-04-25T06:00:30.484Z,36.39
2019-04-25T06:03:00.983Z,35.89
2019-04-25T06:05:33.211Z,36.58
2019-04-25T06:08:04.342Z,36.51
2019-04-25T06:10:48.851Z,35.53
2019-04-25T06:13:36.028Z,35.74
2019-04-25T06:16:08.065Z,35.30
2019-04-25T06:18:48.961Z,35.02
2019-04-25T06:21:19.992Z,34.54
2019-04-25T06:23:52.178Z,34.74
2019-04-25T06:26:33.281Z,33.92
2019-04-25T06:28:59.524Z,32.76
2019-04-25T06:31:29.239Z,33.74
2019-04-25T06:33:59.297Z,34.23
2019-04-25T06:36:31.172Z,33.74
2019-04-25T06:39:01.666Z,33.03
2019-04-25T06:41:32.207Z,33.60
2019-04-25T06:44:04.344Z,34.55
2019-04-25T06:46:44.059Z,34.21
2019-04-25T06:49:16.244Z,33.46
2019-04-25T06:51:50.959Z,33.37
2019-04-25T06:54:22.007Z,32.37
2019-04-25T06:56:53.725Z,32.39
2019-04-25T06:59:25.911Z,32.40
2019-04-25T07:01:56.497Z,31.97
2019-04-25T07:04:28.060Z,31.51
2019-04-25T07:07:09.659Z,30.96
2019-04-25T07:09:34.297Z,30.36
2019-04-25T07:12:03.975Z,30.62
2019-04-25T07:14:38.448Z,30.30
2019-04-25T07:17:09.770Z,30.50
2019-04-25T07:19:40.328Z,30.22
2019-04-25T07:22:11.797Z,30.04
2019-04-25T07:24:43.924Z,29.92
2019-04-25T07:27:19.186Z,29.93
2019-04-25T07:30:04.122Z,30.04
2019-04-25T07:32:39.066Z,30.17
2019-04-25T07:35:09.652Z,30.43
2019-04-25T07:37:41.717Z,29.61
2019-04-25T07:40:13.916Z,29.47
2019-04-25T07:42:44.349Z,29.92
2019-04-25T07:45:19.138Z,29.37
2019-04-25T07:47:53.932Z,29.76
2019-04-25T07:50:24.534Z,29.21
2019-04-25T07:53:01.429Z,28.02
2019-04-25T07:55:39.853Z,27.97
2019-04-25T07:58:10.483Z,28.69
2019-04-25T08:00:43.840Z,28.53
2019-04-25T08:03:17.708Z,27.95
2019-04-25T08:06:05.253Z,28.14
2019-04-25T08:08:38.119Z,28.97
2019-04-25T08:11:10.181Z,28.07
2019-04-25T08:14:00.659Z,27.17
2019-04-25T08:16:34.758Z,27.63
2019-04-25T08:19:07.091Z,27.03
2019-04-25T08:21:38.405Z,27.75
2019-04-25T08:24:10.456Z,27.09
2019-04-25T08:26:41.772Z,26.94
2019-04-25T08:29:13.324Z,26.88
2019-04-25T08:31:45.302Z,26.66
2019-04-25T08:34:16.788Z,26.85
2019-04-25T08:36:48.544Z,26.41
2019-04-25T08:39:19.072Z,26.82
2019-04-25T08:41:49.657Z,26.54
2019-04-25T08:44:20.155Z,25.01
2019-04-25T08:46:50.799Z,25.39
2019-04-25T08:49:31.543Z,24.78
2019-04-25T08:52:13.138Z,25.34
2019-04-25T08:55:11.038Z,24.70
2019-04-25T08:57:51.614Z,25.17
2019-04-25T09:00:42.444Z,24.52
2019-04-25T09:03:15.294Z,23.42
2019-04-25T09:05:47.802Z,23.16
2019-04-25T09:08:18.771Z,22.27
2019-04-25T09:10:49.339Z,23.01
2019-04-25T09:13:20.259Z,22.89
2019-04-25T09:15:51.523Z,23.66
2019-04-25T09:18:23.865Z,23.68
2019-04-25T09:20:55.688Z,23.21
2019-04-25T09:23:26.858Z,22.66
2019-04-25T09:25:59.944Z,22.97
2019-04-25T09:28:37.601Z,22.52
2019-04-25T09:31:11.440Z,22.82
2019-04-25T09:33:45.096Z,23.68
2019-04-25T09:36:16.856Z,21.93
2019-04-25T09:38:50.550Z,19.87
2019-04-25T09:41:21.056Z,20.24
2019-04-25T09:43:54.872Z,19.70
2019-04-25T09:46:28.554Z,19.93
2019-04-25T09:49:14.138Z,21.44
2019-04-25T09:51:49.040Z,20.53
2019-04-25T09:54:30.238Z,20.58
2019-04-25T09:57:18.531Z,19.29
2019-04-25T09:59:49.800Z,18.63
2019-04-25T10:02:20.593Z,18.94
2019-04-25T10:04:51.179Z,19.60
2019-04-25T10:07:22.170Z,20.25
2019-04-25T10:09:54.473Z,19.27
2019-04-25T10:12:24.933Z,19.37
2019-04-25T10:15:04.609Z,19.81
2019-04-25T10:17:35.096Z,18.11
2019-04-25T10:20:07.780Z,18.02
2019-04-25T10:22:38.841Z,18.07
2019-04-25T10:25:09.685Z,18.23
2019-04-25T10:27:40.737Z,18.29
2019-04-25T10:30:17.769Z,17.60
2019-04-25T10:32:46.290Z,18.19
2019-04-25T10:35:16.886Z,18.29
2019-04-25T10:37:48.470Z,18.15
2019-04-25T10:40:19.427Z,17.75
2019-04-25T10:42:50.701Z,17.72
2019-04-25T10:45:24.248Z,19.05
2019-04-25T10:47:55.299Z,17.54
2019-04-25T10:50:25.697Z,17.92
2019-04-25T10:52:56.183Z,18.28
2019-04-25T10:55:27.821Z,16.70
2019-04-25T10:57:59.952Z,17.26
2019-04-25T11:00:33.796Z,16.98
2019-04-25T11:03:18.629Z,16.71
2019-04-25T11:05:50.826Z,16.73
2019-04-25T11:08:21.243Z,15.89
2019-04-25T11:10:53.745Z,16.76
2019-04-25T11:13:25.417Z,17.14
2019-04-25T11:15:57.129Z,16.83
2019-04-25T11:18:27.853Z,17.07
2019-04-25T11:20:59.228Z,17.01
2019-04-25T11:23:29.831Z,16.22
2019-04-25T11:26:00.459Z,17.26
2019-04-25T11:28:31.239Z,16.46
2019-04-25T11:31:04.167Z,15.81
2019-04-25T11:33:35.916Z,16.45
2019-04-25T11:36:06.625Z,16.67
2019-04-25T11:38:38.703Z,16.25
2019-04-25T11:41:17.065Z,15.96
2019-04-25T11:43:48.682Z,16.02
2019-04-25T11:46:19.926Z,15.46
2019-04-25T11:48:50.666Z,15.71
2019-04-25T11:51:24.050Z,16.03
2019-04-25T11:53:55.646Z,15.39
2019-04-25T11:56:26.755Z,15.35
2019-04-25T11:58:57.475Z,14.70
2019-04-25T12:01:29.762Z,15.36
2019-04-25T12:04:00.599Z,14.14
2019-04-25T12:06:33.481Z,15.38
2019-04-25T12:09:05.823Z,16.45
2019-04-25T12:11:36.540Z,15.03
2019-04-25T12:14:07.541Z,16.44
2019-04-25T12:16:38.594Z,16.75
2019-04-25T12:19:11.173Z,16.17
2019-04-25T12:21:43.747Z,16.39
2019-04-25T12:24:16.480Z,15.96
2019-04-25T12:26:48.707Z,16.77
2019-04-25T12:29:19.914Z,16.02
2019-04-25T12:31:53.868Z,16.66
2019-04-25T12:34:24.481Z,15.76
2019-04-25T12:36:55.339Z,15.65
2019-04-25T12:39:25.925Z,16.45
2019-04-25T12:41:57.480Z,15.37
2019-04-25T12:44:47.848Z,16.32
2019-04-25T12:47:24.194Z,15.76
2019-04-25T12:49:56.037Z,16.81
2019-04-25T12:52:27.704Z,17.54
2019-04-25T12:54:59.608Z,16.37
2019-04-25T12:57:31.547Z,17.58
2019-04-25T13:00:04.042Z,15.80
2019-04-25T13:02:38.452Z,16.36
2019-04-25T13:05:15.294Z,15.92
2019-04-25T13:07:51.470Z,15.58
2019-04-25T13:10:27.460Z,16.36
2019-04-25T13:13:01.772Z,16.73
2019-04-25T13:15:39.182Z,16.38
2019-04-25T13:18:12.435Z,16.49
2019-04-25T13:20:45.153Z,16.47
2019-04-25T13:23:15.859Z,18.26
2019-04-25T13:25:46.599Z,18.31
2019-04-25T13:28:25.955Z,16.57
2019-04-25T13:31:14.846Z,16.73
2019-04-25T13:33:51.391Z,15.92
2019-04-25T13:36:25.101Z,17.08
2019-04-25T13:38:57.080Z,16.05
2019-04-25T13:41:27.816Z,16.14
2019-04-25T13:43:58.936Z,16.04
2019-04-25T13:46:29.647Z,16.18
2019-04-25T13:49:00.148Z,15.75
2019-04-25T13:51:30.827Z,16.98
2019-04-25T13:54:01.521Z,16.37
2019-04-25T13:56:33.685Z,15.75
2019-04-25T13:59:04.983Z,15.50
2019-04-25T14:01:39.250Z,16.97
2019-04-25T14:04:12.194Z,16.63
2019-04-25T14:06:43.548Z,15.43
2019-04-25T14:09:35.968Z,16.27
2019-04-25T14:12:14.030Z,16.94
2019-04-25T14:14:45.403Z,18.73
2019-04-25T14:17:22.589Z,17.78
2019-04-25T14:19:58.797Z,18.72
2019-04-25T14:22:30.410Z,18.00
2019-04-25T14:25:01.093Z,19.86
2019-04-25T14:27:32.524Z,19.85
2019-04-25T14:30:06.720Z,19.05
2019-04-25T14:32:37.405Z,19.65
2019-04-25T14:35:09.400Z,19.73
2019-04-25T14:37:40.421Z,19.31
2019-04-25T14:40:11.183Z,19.78
2019-04-25T14:42:42.660Z,20.10
2019-04-25T14:45:21.560Z,20.61
2019-04-25T14:47:58.167Z,20.74
2019-04-25T14:50:29.959Z,21.06
2019-04-25T14:53:00.723Z,21.25
2019-04-25T14:55:51.609Z,20.69
2019-04-25T14:58:26.203Z,21.06
2019-04-25T15:00:56.974Z,21.31
2019-04-25T15:03:27.469Z,21.80
2019-04-25T15:05:59.088Z,21.81
2019-04-25T15:08:30.596Z,21.58
2019-04-25T15:11:01.343Z,21.42
2019-04-25T15:13:32.107Z,22.00
2019-04-25T15:16:04.896Z,22.24
2019-04-25T15:18:46.139Z,22.64
2019-04-25T15:21:07.650Z,21.71
2019-04-25T15:23:38.162Z,22.90
2019-04-25T15:26:08.859Z,22.74
2019-04-25T15:28:39.480Z,22.01
2019-04-25T15:31:10.138Z,22.22
2019-04-25T15:33:40.675Z,23.40
2019-04-25T15:36:14.502Z,23.88
2019-04-25T15:38:52.285Z,23.47
2019-04-25T15:41:39.671Z,22.90
2019-04-25T15:44:17.647Z,22.03
2019-04-25T15:46:56.898Z,22.38
2019-04-25T15:49:27.487Z,23.83
2019-04-25T15:51:59.671Z,24.86
2019-04-25T15:54:30.175Z,24.89
2019-04-25T15:57:00.696Z,24.42
2019-04-25T15:59:31.412Z,24.26
2019-04-25T16:02:07.910Z,25.91
2019-04-25T16:04:34.578Z,25.46
2019-04-25T16:07:05.437Z,24.55
2019-04-25T16:09:36.580Z,26.08
2019-04-25T16:12:07.407Z,26.52
2019-04-25T16:14:41.217Z,25.73
2019-04-25T16:17:11.841Z,27.12
2019-04-25T16:19:42.305Z,26.26
2019-04-25T16:22:12.828Z,27.50
2019-04-25T16:24:44.592Z,26.94
2019-04-25T16:27:15.184Z,27.51
2019-04-25T16:29:45.642Z,28.21
2019-04-25T16:32:20.825Z,28.04
2019-04-25T16:34:51.226Z,27.98
2019-04-25T16:37:21.823Z,28.81
2019-04-25T16:39:52.367Z,30.73
2019-04-25T16:42:22.872Z,31.39
2019-04-25T16:44:54.892Z,32.27
2019-04-25T16:47:28.763Z,33.05
2019-04-25T16:50:00.182Z,33.43
2019-04-25T16:52:31.695Z,34.46
2019-04-25T16:55:02.322Z,34.81
2019-04-25T16:57:32.905Z,35.39
2019-04-25T17:00:04.553Z,36.08
2019-04-25T17:02:39.306Z,36.57
2019-04-25T17:05:08.868Z,37.13
2019-04-25T17:07:39.505Z,38.12
2019-04-25T17:10:10.671Z,38.14
2019-04-25T17:12:41.236Z,38.71
2019-04-25T17:15:17.957Z,38.56
2019-04-25T17:18:05.225Z,38.43
2019-04-25T17:20:37.304Z,39.77
2019-04-25T17:23:07.864Z,40.81
2019-04-25T17:25:38.350Z,40.29
2019-04-25T17:28:09.003Z,41.30
2019-04-25T17:30:42.099Z,41.67
2019-04-25T17:33:15.135Z,41.44
2019-04-25T17:35:53.070Z,41.46
2019-04-25T17:38:25.518Z,41.54
2019-04-25T17:40:56.025Z,41.51
2019-04-25T17:43:26.990Z,42.87
2019-04-25T17:45:57.518Z,43.55
2019-04-25T17:48:28.118Z,43.69
2019-04-25T17:50:58.605Z,44.27
2019-04-25T17:53:29.150Z,43.73
2019-04-25T17:55:59.752Z,42.79
2019-04-25T17:58:30.295Z,43.29
2019-04-25T18:01:00.904Z,43.24
2019-04-25T18:03:33.730Z,42.11
2019-04-25T18:06:04.356Z,42.83
2019-04-25T18:08:35.606Z,42.04
2019-04-25T18:11:06.416Z,43.94
2019-04-25T18:13:38.814Z,43.00
2019-04-25T18:16:13.874Z,42.57
2019-04-25T18:18:46.008Z,43.50
2019-04-25T18:21:16.538Z,41.84
2019-04-25T18:23:48.666Z,43.72
2019-04-25T18:26:20.748Z,41.60
2019-04-25T18:28:55.595Z,42.68
2019-04-25T18:31:26.099Z,42.92
2019-04-25T18:33:58.215Z,41.91
2019-04-25T18:36:37.309Z,42.71
2019-04-25T18:39:21.257Z,42.22
2019-04-25T18:41:59.093Z,42.50
2019-04-25T18:44:29.636Z,41.65
2019-04-25T18:47:00.132Z,44.02
2019-04-25T18:49:30.815Z,44.03
2019-04-25T18:52:05.644Z,44.31
2019-04-25T18:54:38.764Z,44.46
2019-04-25T18:57:10.829Z,42.93
2019-04-25T18:59:46.084Z,42.75
2019-04-25T19:02:27.698Z,41.69
2019-04-25T19:05:02.820Z,42.36
2019-04-25T19:07:33.346Z,41.62
2019-04-25T19:10:04.592Z,41.69
2019-04-25T19:12:35.123Z,40.94
2019-04-25T19:15:07.085Z,41.07
2019-04-25T19:17:37.615Z,41.57
2019-04-25T19:20:08.379Z,41.71
2019-04-25T19:22:40.159Z,42.06
2019-04-25T19:25:11.019Z,41.21
2019-04-25T19:27:42.087Z,41.96
2019-04-25T19:30:14.245Z,43.25
2019-04-25T19:32:45.065Z,44.71
2019-04-25T19:35:15.623Z,43.90
2019-04-25T19:37:46.453Z,42.05
2019-04-25T19:40:25.183Z,40.66
2019-04-25T19:43:13.565Z,39.86
2019-04-25T19:45:45.535Z,40.39
2019-04-25T19:48:16.050Z,41.11
2019-04-25T19:50:46.596Z,38.12
2019-04-25T19:53:17.210Z,36.97
2019-04-25T19:55:47.735Z,37.21
2019-04-25T19:58:18.237Z,35.95
2019-04-25T20:00:50.902Z,35.93
2019-04-25T20:03:23.145Z,35.43
2019-04-25T20:06:07.110Z,36.26
2019-04-25T20:08:39.199Z,33.90
2019-04-25T20:11:11.388Z,34.43
2019-04-25T20:13:42.828Z,34.02
2019-04-25T20:16:14.192Z,33.80
2019-04-25T20:18:45.614Z,34.06
2019-04-25T20:21:16.184Z,33.80
2019-04-25T20:23:46.653Z,33.80
2019-04-25T20:26:17.211Z,33.59
2019-04-25T20:28:48.344Z,34.43
2019-04-25T20:31:18.895Z,34.81
2019-04-25T20:34:02.368Z,35.31
2019-04-25T20:36:21.744Z,35.49
2019-04-25T20:38:53.132Z,34.08
2019-04-25T20:41:24.039Z,34.15
2019-04-25T20:43:54.979Z,35.06
2019-04-25T20:46:25.523Z,36.03
2019-04-25T20:48:56.468Z,35.60
2019-04-25T20:51:27.037Z,36.06
2019-04-25T20:53:57.650Z,35.02
2019-04-25T20:56:28.180Z,35.53
2019-04-25T20:58:58.665Z,35.21
2019-04-25T21:01:29.187Z,36.12
2019-04-25T21:03:59.693Z,36.43
2019-04-25T21:06:31.879Z,36.03
2019-04-25T21:09:02.374Z,36.01
2019-04-25T21:11:32.985Z,37.01
2019-04-25T21:14:05.068Z,36.52
2019-04-25T21:16:43.030Z,37.44
2019-04-25T21:19:15.104Z,37.87
2019-04-25T21:21:45.620Z,38.02
2019-04-25T21:24:16.153Z,38.58
2019-04-25T21:26:46.685Z,38.07
2019-04-25T21:29:17.298Z,38.30
2019-04-25T21:31:47.868Z,39.32
2019-04-25T21:34:25.766Z,40.86
2019-04-25T21:36:51.251Z,38.02
2019-04-25T21:39:40.415Z,38.28
2019-04-25T21:42:13.078Z,39.52
2019-04-25T21:44:43.984Z,40.03
2019-04-25T21:47:14.548Z,39.10
2019-04-25T21:49:45.336Z,40.18
2019-04-25T21:52:15.877Z,39.99
2019-04-25T21:54:48.625Z,41.59
2019-04-25T21:57:18.926Z,40.37
2019-04-25T21:59:58.983Z,39.50
2019-04-25T22:02:22.155Z,39.54
2019-04-25T22:04:54.155Z,37.92
2019-04-25T22:07:25.325Z,37.64
2019-04-25T22:09:56.945Z,39.76
2019-04-25T22:12:27.703Z,39.31
2019-04-25T22:14:59.117Z,38.43
2019-04-25T22:17:29.781Z,39.50
2019-04-25T22:20:00.490Z,37.20
2019-04-25T22:22:31.323Z,38.38
2019-04-25T22:25:02.672Z,37.90
2019-04-25T22:27:36.670Z,38.75
2019-04-25T22:30:09.589Z,38.41
2019-04-25T22:32:41.824Z,38.06
2019-04-25T22:35:19.676Z,37.22
2019-04-25T22:37:50.463Z,38.58
2019-04-25T22:40:21.018Z,36.78
2019-04-25T22:42:52.321Z,36.97
2019-04-25T22:45:22.828Z,37.26
2019-04-25T22:47:53.470Z,36.92
2019-04-25T22:50:24.066Z,37.06
2019-04-25T22:52:54.535Z,38.12
2019-04-25T22:55:24.974Z,39.42
2019-04-25T22:57:55.379Z,38.42
2019-04-25T23:00:30.431Z,37.92
2019-04-25T23:03:09.351Z,40.06
2019-04-25T23:05:41.465Z,40.69
2019-04-25T23:08:12.635Z,38.43
2019-04-25T23:10:43.182Z,38.69
2019-04-25T23:13:13.656Z,39.98
2019-04-25T23:15:44.076Z,41.08
2019-04-25T23:18:14.780Z,39.23
2019-04-25T23:20:46.735Z,38.65
2019-04-25T23:23:17.213Z,39.11
2019-04-25T23:25:54.959Z,39.91
2019-04-25T23:28:30.203Z,38.38
2019-04-25T23:31:05.396Z,39.09
2019-04-25T23:33:36.875Z,38.90
2019-04-25T23:36:07.716Z,39.62
2019-04-25T23:38:38.208Z,39.38
2019-04-25T23:41:09.365Z,42.16
2019-04-25T23:43:40.209Z,40.24
2019-04-25T23:46:10.669Z,39.32
2019-04-25T23:48:41.477Z,40.12
2019-04-25T23:51:11.871Z,40.08
2019-04-25T23:53:42.750Z,38.58
2019-04-25T23:56:13.358Z,38.64
2019-04-25T23:58:44.227Z,38.04
